createdAt,value
2022-12-28T00:01:46.845Z,85.34
2022-12-28T00:06:50.867Z,85.07
2022-12-28T00:11:53.279Z,85.26
2022-12-28T00:16:55.578Z,85.27
2022-12-28T00:21:57.929Z,85.30
2022-12-28T00:27:00.159Z,85.25
2022-12-28T00:32:02.501Z,85.25
2022-12-28T00:37:09.180Z,85.29
2022-12-28T00:42:20.361Z,85.17
2022-12-28T00:47:22.822Z,85.21
2022-12-28T00:52:25.096Z,85.45
2022-12-28T00:57:27.683Z,85.31
2022-12-28T01:02:31.182Z,85.34
2022-12-28T01:07:33.603Z,85.45
2022-12-28T01:12:38.451Z,85.41
2022-12-28T01:17:41.013Z,85.38
2022-12-28T01:22:43.239Z,85.32
2022-12-28T01:27:45.455Z,85.61
2022-12-28T01:32:47.657Z,85.49
2022-12-28T01:37:50.062Z,85.29
2022-12-28T01:42:52.313Z,85.32
2022-12-28T01:47:55.375Z,85.23
2022-12-28T01:53:02.142Z,85.56
2022-12-28T01:58:18.592Z,85.54
2022-12-28T02:03:23.989Z,85.42
2022-12-28T02:08:59.099Z,85.52
2022-12-28T02:14:05.403Z,85.47
2022-12-28T02:19:10.174Z,85.17
2022-12-28T02:25:11.531Z,85.44
2022-12-28T02:30:15.158Z,85.10
2022-12-28T02:35:20.353Z,85.03
2022-12-28T02:40:36.178Z,85.18
2022-12-28T02:46:04.984Z,85.05
2022-12-28T02:51:38.751Z,85.22
2022-12-28T02:56:56.358Z,85.17
2022-12-28T03:02:21.853Z,85.21
2022-12-28T03:08:20.488Z,85.19
2022-12-28T03:13:45.357Z,85.11
2022-12-28T03:19:20.901Z,85.28
2022-12-28T03:24:42.422Z,85.31
2022-12-28T03:30:22.946Z,85.14
2022-12-28T03:35:45.582Z,85.23
2022-12-28T03:40:50.086Z,85.20
2022-12-28T03:46:21.070Z,85.14
2022-12-28T03:51:25.403Z,84.95
2022-12-28T03:56:29.789Z,85.15
2022-12-28T04:01:36.008Z,85.02
2022-12-28T04:06:38.828Z,85.05
2022-12-28T04:11:41.199Z,85.03
2022-12-28T04:16:48.962Z,84.98
2022-12-28T04:21:53.130Z,84.96
2022-12-28T04:26:55.886Z,84.98
2022-12-28T04:31:58.150Z,84.94
2022-12-28T04:37:01.083Z,84.85
2022-12-28T04:42:03.337Z,85.00
2022-12-28T04:47:05.719Z,85.15
2022-12-28T04:52:08.387Z,85.14
2022-12-28T04:57:10.759Z,85.03
2022-12-28T05:02:13.036Z,85.02
2022-12-28T05:07:15.332Z,85.06
2022-12-28T05:12:17.576Z,84.93
2022-12-28T05:17:19.848Z,84.97
2022-12-28T05:22:22.148Z,84.95
2022-12-28T05:27:24.458Z,85.01
2022-12-28T05:32:26.680Z,85.01
2022-12-28T05:37:29.075Z,84.73
2022-12-28T05:42:32.376Z,84.75
2022-12-28T05:47:34.724Z,84.96
2022-12-28T05:52:38.621Z,84.87
2022-12-28T05:57:41.226Z,84.94
2022-12-28T06:02:43.933Z,84.87
2022-12-28T06:07:46.241Z,84.71
2022-12-28T06:12:48.605Z,84.64
2022-12-28T06:17:53.880Z,84.74
2022-12-28T06:22:57.164Z,84.76
2022-12-28T06:27:59.528Z,84.73
2022-12-28T06:33:02.313Z,84.72
2022-12-28T06:38:04.638Z,84.68
2022-12-28T06:43:07.105Z,84.96
2022-12-28T06:48:11.124Z,84.92
2022-12-28T06:53:14.476Z,84.77
2022-12-28T06:58:17.085Z,84.56
2022-12-28T07:03:19.639Z,84.78
2022-12-28T07:08:21.893Z,84.59
2022-12-28T07:13:28.144Z,84.64
2022-12-28T07:18:31.089Z,84.82
2022-12-28T07:23:33.874Z,84.61
2022-12-28T07:28:40.646Z,84.63
2022-12-28T07:33:43.756Z,84.74
2022-12-28T07:38:46.570Z,84.63
2022-12-28T07:43:50.512Z,84.62
2022-12-28T07:48:53.489Z,84.69
2022-12-28T07:53:58.348Z,84.56
2022-12-28T07:59:04.379Z,84.69
2022-12-28T08:04:11.140Z,84.69
2022-12-28T08:09:14.687Z,84.77
2022-12-28T08:14:17.001Z,84.49
2022-12-28T08:19:20.116Z,84.61
2022-12-28T08:24:22.716Z,84.55
2022-12-28T08:29:25.123Z,84.76
2022-12-28T08:34:27.578Z,84.59
2022-12-28T08:39:29.858Z,84.61
2022-12-28T08:44:32.112Z,84.43
2022-12-28T08:49:34.354Z,84.33
2022-12-28T08:54:37.457Z,84.48
2022-12-28T08:59:39.687Z,84.37
2022-12-28T09:04:42.368Z,84.34
2022-12-28T09:09:44.825Z,84.31
2022-12-28T09:14:48.241Z,84.18
2022-12-28T09:19:52.463Z,84.47
2022-12-28T09:24:55.406Z,84.26
2022-12-28T09:30:03.679Z,84.42
2022-12-28T09:35:07.426Z,84.21
2022-12-28T09:40:10.319Z,84.29
2022-12-28T09:45:12.898Z,84.40
2022-12-28T09:50:22.751Z,84.18
2022-12-28T09:55:25.345Z,84.59
2022-12-28T10:00:52.845Z,84.37
2022-12-28T10:05:58.045Z,84.33
2022-12-28T10:11:02.510Z,84.45
2022-12-28T10:16:15.865Z,84.36
2022-12-28T10:21:20.589Z,84.32
2022-12-28T10:26:23.133Z,84.01
2022-12-28T10:31:39.659Z,84.30
2022-12-28T10:36:42.720Z,84.21
2022-12-28T10:41:45.827Z,84.37
2022-12-28T10:47:01.250Z,84.31
2022-12-28T10:52:15.629Z,84.09
2022-12-28T10:57:38.028Z,84.19
2022-12-28T11:02:40.690Z,83.78
2022-12-28T11:07:45.773Z,83.99
2022-12-28T11:12:47.992Z,83.87
2022-12-28T11:17:56.524Z,83.82
2022-12-28T11:22:59.030Z,83.55
2022-12-28T11:28:06.560Z,83.83
2022-12-28T11:33:29.387Z,83.94
2022-12-28T11:38:58.537Z,83.79
2022-12-28T11:44:04.779Z,83.58
2022-12-28T11:49:30.281Z,83.59
2022-12-28T11:54:50.583Z,83.57
2022-12-28T11:59:52.809Z,83.27
2022-12-28T12:04:55.619Z,83.46
2022-12-28T12:10:34.277Z,83.48
2022-12-28T12:15:43.366Z,83.33
2022-12-28T12:20:51.028Z,83.22
2022-12-28T12:25:54.611Z,83.10
2022-12-28T12:30:57.147Z,82.99
2022-12-28T12:36:10.535Z,83.08
2022-12-28T12:41:15.623Z,83.07
2022-12-28T12:46:43.359Z,83.13
2022-12-28T12:52:04.057Z,83.07
2022-12-28T12:57:19.737Z,82.87
2022-12-28T13:02:26.086Z,82.72
2022-12-28T13:07:28.689Z,82.60
2022-12-28T13:12:33.442Z,82.86
2022-12-28T13:17:36.137Z,82.88
2022-12-28T13:22:43.119Z,82.67
2022-12-28T13:27:45.353Z,82.69
2022-12-28T13:32:52.950Z,82.83
2022-12-28T13:38:10.155Z,82.68
2022-12-28T13:43:43.531Z,82.68
2022-12-28T13:48:51.158Z,82.74
2022-12-28T13:53:58.290Z,82.54
2022-12-28T13:59:04.351Z,82.57
2022-12-28T14:09:44.578Z,82.18
2022-12-28T14:14:50.081Z,82.43
2022-12-28T14:19:52.976Z,82.63
2022-12-28T14:25:02.821Z,82.46
2022-12-28T14:30:09.102Z,82.62
2022-12-28T14:35:21.637Z,82.42
2022-12-28T14:40:28.711Z,82.56
2022-12-28T14:46:07.406Z,82.43
2022-12-28T14:51:17.513Z,82.65
2022-12-28T14:56:20.239Z,82.65
2022-12-28T15:01:25.772Z,82.58
2022-12-28T15:06:31.051Z,82.65
2022-12-28T15:11:33.322Z,82.51
2022-12-28T15:16:35.675Z,82.48
2022-12-28T15:21:37.960Z,82.71
2022-12-28T15:26:40.188Z,82.57
2022-12-28T15:31:42.470Z,82.63
2022-12-28T15:36:45.808Z,82.80
2022-12-28T15:41:48.157Z,82.60
2022-12-28T15:46:50.918Z,82.59
2022-12-28T15:51:53.356Z,82.72
2022-12-28T15:56:56.769Z,82.81
2022-12-28T16:01:59.435Z,82.85
2022-12-28T16:07:02.218Z,82.68
2022-12-28T16:12:04.942Z,82.78
2022-12-28T16:17:07.153Z,82.74
2022-12-28T16:22:09.701Z,82.77
2022-12-28T16:27:12.059Z,82.78
2022-12-28T16:32:14.285Z,82.96
2022-12-28T16:37:17.131Z,82.75
2022-12-28T16:42:19.373Z,82.68
2022-12-28T16:47:21.602Z,82.89
2022-12-28T16:52:23.819Z,82.67
2022-12-28T16:57:26.715Z,82.95
2022-12-28T17:02:29.265Z,82.78
2022-12-28T17:07:31.740Z,82.83
2022-12-28T17:12:34.205Z,82.84
2022-12-28T17:17:36.493Z,82.65
2022-12-28T17:22:39.314Z,82.77
2022-12-28T17:27:41.732Z,82.74
2022-12-28T17:32:45.526Z,82.62
2022-12-28T17:37:47.960Z,82.48
2022-12-28T17:42:50.337Z,82.41
2022-12-28T17:47:52.660Z,82.77
2022-12-28T17:52:54.941Z,82.91
2022-12-28T17:57:57.453Z,83.00
2022-12-28T18:02:59.861Z,83.13
2022-12-28T18:08:02.418Z,83.18
2022-12-28T18:13:04.830Z,83.14
2022-12-28T18:18:07.933Z,83.17
2022-12-28T18:23:11.176Z,83.04
2022-12-28T18:28:14.266Z,83.20
2022-12-28T18:33:16.524Z,83.18
2022-12-28T18:38:21.254Z,83.37
2022-12-28T18:43:24.073Z,83.42
2022-12-28T18:48:27.495Z,83.27
2022-12-28T18:53:31.051Z,83.48
2022-12-28T18:58:35.870Z,83.39
2022-12-28T19:03:39.110Z,83.48
2022-12-28T19:08:41.788Z,83.43
2022-12-28T19:13:44.208Z,83.38
2022-12-28T19:18:46.644Z,83.80
2022-12-28T19:23:56.014Z,83.60
2022-12-28T19:28:58.537Z,83.76
2022-12-28T19:34:00.799Z,83.59
2022-12-28T19:39:03.467Z,83.71
2022-12-28T19:44:08.248Z,83.68
2022-12-28T19:49:10.814Z,83.96
2022-12-28T19:54:13.258Z,83.71
2022-12-28T19:59:15.612Z,83.83
2022-12-28T20:04:17.852Z,83.96
2022-12-28T20:09:20.131Z,84.11
2022-12-28T20:14:25.205Z,84.30
2022-12-28T20:19:27.878Z,84.24
2022-12-28T20:24:30.172Z,84.35
2022-12-28T20:29:32.865Z,84.25
2022-12-28T20:34:35.265Z,84.34
2022-12-28T20:39:38.267Z,84.38
2022-12-28T20:44:40.535Z,84.34
2022-12-28T20:49:42.880Z,84.42
2022-12-28T20:54:45.228Z,84.43
2022-12-28T20:59:47.510Z,84.44
2022-12-28T21:04:49.779Z,84.57
2022-12-28T21:09:52.223Z,84.34
2022-12-28T21:14:54.540Z,84.57
2022-12-28T21:19:56.769Z,84.59
2022-12-28T21:24:59.010Z,84.61
2022-12-28T21:30:01.240Z,84.61
2022-12-28T21:35:04.247Z,84.66
2022-12-28T21:40:09.010Z,84.65
2022-12-28T21:45:11.754Z,84.68
2022-12-28T21:50:14.129Z,84.65
2022-12-28T21:55:34.684Z,84.78
2022-12-28T22:00:55.433Z,84.88
2022-12-28T22:06:02.915Z,84.97
2022-12-28T22:11:23.727Z,85.20
2022-12-28T22:16:26.089Z,84.91
2022-12-28T22:21:29.316Z,85.31
2022-12-28T22:26:31.506Z,85.13
2022-12-28T22:31:33.720Z,85.17
2022-12-28T22:36:36.164Z,85.01
2022-12-28T22:41:38.451Z,84.96
2022-12-28T22:46:40.774Z,85.09
2022-12-28T22:51:43.198Z,85.18
2022-12-28T22:56:45.652Z,84.99
2022-12-28T23:01:48.544Z,85.05
2022-12-28T23:06:51.265Z,84.98
2022-12-28T23:11:53.492Z,84.98
2022-12-28T23:16:56.744Z,84.79
2022-12-28T23:22:17.464Z,85.03
2022-12-28T23:27:22.516Z,85.13
2022-12-28T23:32:24.847Z,85.08
2022-12-28T23:37:27.061Z,85.27
2022-12-28T23:42:29.250Z,85.01
2022-12-28T23:47:31.605Z,84.88
2022-12-28T23:52:33.926Z,84.97
2022-12-28T23:57:36.265Z,85.11
